Time;durP1;ratioP1;P1;durP2;ratioP2;P2;SDS_P1;SDS_P2;PMS_P1;PMS_P2;Temp;Humidity;BMP_temperature;BMP_pressure;BME280_temperature;BME280_humidity;BME280_pressure;Samples;Min_cycle;Max_cycle;Signal;HPM_P1;HPM_P2
2021/05/24 00:00:08;;;;;;;12.10;11.50;;;9.50;99.90;;;;;;4992886;28;20492;-67
2021/05/24 00:02:35;;;;;;;12.07;11.43;;;9.50;99.90;;;;;;4992652;28;20488;-67
2021/05/24 00:05:02;;;;;;;11.30;10.57;;;9.40;99.90;;;;;;4992704;28;20487;-67
2021/05/24 00:07:29;;;;;;;11.83;11.23;;;9.40;99.90;;;;;;4992665;28;20454;-68
2021/05/24 00:09:55;;;;;;;11.70;10.90;;;9.40;99.90;;;;;;4992429;28;20443;-67
2021/05/24 00:12:26;;;;;;;13.03;12.37;;;9.50;99.90;;;;;;4992312;28;21008;-68
2021/05/24 00:14:52;;;;;;;12.30;11.60;;;9.40;99.90;;;;;;4993090;28;20542;-68
2021/05/24 00:17:18;;;;;;;11.40;10.90;;;9.40;99.90;;;;;;4992250;28;20864;-68
2021/05/24 00:19:45;;;;;;;11.23;10.73;;;9.30;99.90;;;;;;4992808;28;20462;-67
2021/05/24 00:22:12;;;;;;;11.80;11.00;;;9.30;99.90;;;;;;4992376;28;20454;-68
2021/05/24 00:24:38;;;;;;;12.20;11.50;;;9.30;99.90;;;;;;4992258;28;20486;-68
2021/05/24 00:27:05;;;;;;;12.23;11.43;;;9.20;99.90;;;;;;4992124;28;20458;-67
2021/05/24 00:29:31;;;;;;;12.70;11.90;;;9.20;99.90;;;;;;4992274;28;20447;-67
2021/05/24 00:31:58;;;;;;;11.43;10.83;;;9.20;99.90;;;;;;4992387;28;20863;-67
2021/05/24 00:34:24;;;;;;;12.07;11.37;;;9.20;99.90;;;;;;4994280;28;20840;-67
2021/05/24 00:36:52;;;;;;;12.97;12.07;;;9.20;99.90;;;;;;5011518;28;20790;-67
2021/05/24 00:39:18;;;;;;;11.73;11.03;;;9.10;99.90;;;;;;5011584;28;20457;-68
2021/05/24 00:41:45;;;;;;;12.07;11.37;;;9.10;99.90;;;;;;5011836;28;20810;-68
2021/05/24 00:44:11;;;;;;;12.27;11.60;;;9.00;99.90;;;;;;5011661;28;20544;-68
2021/05/24 00:46:38;;;;;;;13.20;12.30;;;9.00;99.90;;;;;;5011893;28;20453;-68
2021/05/24 00:49:05;;;;;;;12.33;11.63;;;9.00;99.90;;;;;;5011835;28;20686;-68
2021/05/24 00:51:31;;;;;;;11.40;10.90;;;8.90;99.90;;;;;;5011355;28;20450;-67
2021/05/24 00:53:58;;;;;;;11.80;11.20;;;8.90;99.90;;;;;;5011592;28;20442;-68
2021/05/24 00:56:25;;;;;;;11.57;10.63;;;8.90;99.90;;;;;;5011366;28;20461;-68
2021/05/24 00:58:51;;;;;;;11.70;11.20;;;8.90;99.90;;;;;;5011322;28;21279;-67
2021/05/24 01:01:18;;;;;;;10.90;10.40;;;8.90;99.90;;;;;;5011320;28;20482;-67
2021/05/24 01:03:44;;;;;;;12.73;11.70;;;9.00;99.90;;;;;;5011307;28;20504;-67
2021/05/24 01:06:10;;;;;;;12.23;11.60;;;8.90;99.90;;;;;;5011407;28;20446;-68
2021/05/24 01:08:37;;;;;;;12.60;12.00;;;8.90;99.90;;;;;;5011329;28;20446;-67
2021/05/24 01:11:04;;;;;;;11.70;11.20;;;8.90;99.90;;;;;;5010835;28;20820;-67
2021/05/24 01:13:30;;;;;;;11.37;10.87;;;8.90;99.90;;;;;;5011219;28;20453;-67
2021/05/24 01:15:56;;;;;;;12.40;11.80;;;8.90;99.90;;;;;;5011404;28;21022;-67
2021/05/24 01:18:22;;;;;;;12.07;11.37;;;8.90;99.90;;;;;;5011213;28;20845;-67
2021/05/24 01:20:49;;;;;;;12.90;12.20;;;8.90;99.90;;;;;;5010870;28;20450;-68
2021/05/24 01:23:17;;;;;;;12.40;11.80;;;8.90;99.90;;;;;;5010933;28;20457;-67
2021/05/24 01:25:45;;;;;;;12.87;12.17;;;8.80;99.90;;;;;;5011184;28;20504;-67
2021/05/24 01:28:14;;;;;;;11.50;11.00;;;8.80;99.90;;;;;;5010888;28;20958;-68
2021/05/24 01:30:41;;;;;;;12.57;11.87;;;8.70;99.90;;;;;;5011126;28;20446;-68
2021/05/24 01:33:09;;;;;;;12.73;12.03;;;8.60;99.90;;;;;;5010943;28;20453;-68
2021/05/24 01:35:37;;;;;;;11.50;10.90;;;8.60;99.90;;;;;;4998885;28;20794;-68
2021/05/24 01:38:04;;;;;;;13.10;12.20;;;8.60;99.90;;;;;;4991044;28;20454;-68
2021/05/24 01:40:33;;;;;;;12.00;11.50;;;8.60;99.90;;;;;;4991279;28;20963;-69
2021/05/24 01:43:00;;;;;;;12.10;11.50;;;8.60;99.90;;;;;;4991670;28;20775;-68
2021/05/24 01:45:27;;;;;;;11.77;11.17;;;8.60;99.90;;;;;;4991363;28;20492;-67
2021/05/24 01:47:54;;;;;;;12.87;12.07;;;8.60;99.90;;;;;;4991131;28;20524;-67
2021/05/24 01:50:21;;;;;;;12.33;11.70;;;8.60;99.90;;;;;;4991099;28;20460;-68
2021/05/24 01:52:48;;;;;;;13.33;12.50;;;8.70;99.90;;;;;;4991297;28;20442;-68
2021/05/24 01:55:15;;;;;;;11.80;11.30;;;8.60;99.90;;;;;;4991342;28;20458;-68
2021/05/24 01:57:43;;;;;;;11.90;11.30;;;8.60;99.90;;;;;;4991075;28;20454;-68
2021/05/24 02:00:12;;;;;;;13.50;12.60;;;8.60;99.90;;;;;;4990979;28;20471;-68
2021/05/24 02:02:42;;;;;;;13.60;12.80;;;8.60;99.90;;;;;;4991091;28;20531;-68
2021/05/24 02:05:10;;;;;;;12.87;12.17;;;8.60;99.90;;;;;;4991198;28;20497;-67
2021/05/24 02:07:37;;;;;;;13.43;12.83;;;8.60;99.90;;;;;;4991361;28;20451;-68
2021/05/24 02:10:06;;;;;;;12.93;12.30;;;8.60;99.90;;;;;;4991211;28;20458;-68
2021/05/24 02:12:32;;;;;;;13.37;12.57;;;8.50;99.90;;;;;;4991049;28;20450;-68
2021/05/24 02:14:59;;;;;;;12.57;11.97;;;8.50;99.90;;;;;;4991534;28;20505;-67
2021/05/24 02:17:25;;;;;;;12.37;11.77;;;8.40;99.90;;;;;;4991239;28;20454;-68
2021/05/24 02:19:53;;;;;;;13.40;12.77;;;8.40;99.90;;;;;;4991211;28;20828;-68
2021/05/24 02:22:20;;;;;;;13.10;12.60;;;8.30;99.90;;;;;;4991024;28;20794;-68
2021/05/24 02:24:46;;;;;;;12.90;12.30;;;8.30;99.90;;;;;;4991122;28;20509;-68
2021/05/24 02:27:12;;;;;;;12.50;11.80;;;8.30;99.90;;;;;;4991257;28;20462;-68
2021/05/24 02:29:40;;;;;;;12.60;11.80;;;8.30;99.90;;;;;;4991267;28;20826;-68
2021/05/24 02:32:08;;;;;;;12.43;11.83;;;8.30;99.90;;;;;;4990991;28;20471;-68
2021/05/24 02:34:34;;;;;;;13.07;12.27;;;8.30;99.90;;;;;;4995571;28;20441;-68
2021/05/24 02:37:01;;;;;;;13.90;12.90;;;8.30;99.90;;;;;;5014363;28;20453;-68
2021/05/24 02:39:27;;;;;;;13.10;12.50;;;8.30;99.90;;;;;;5014427;28;20446;-68
2021/05/24 02:41:53;;;;;;;12.00;11.50;;;8.30;99.90;;;;;;5013789;28;20955;-68
2021/05/24 02:44:20;;;;;;;11.43;10.97;;;8.30;99.90;;;;;;5013966;28;20485;-68
2021/05/24 02:46:46;;;;;;;13.60;12.80;;;8.30;99.90;;;;;;5014105;28;20453;-68
2021/05/24 02:49:13;;;;;;;13.73;13.03;;;8.30;99.90;;;;;;5014043;28;20511;-68
2021/05/24 02:51:39;;;;;;;13.00;12.30;;;8.30;99.90;;;;;;5014164;28;20464;-67
2021/05/24 02:54:06;;;;;;;14.17;13.37;;;8.30;99.90;;;;;;5013843;28;20446;-68
2021/05/24 02:56:33;;;;;;;13.60;12.90;;;8.30;99.90;;;;;;5014003;28;20446;-67
2021/05/24 02:59:00;;;;;;;14.47;13.77;;;8.30;99.90;;;;;;5013769;28;20469;-67
2021/05/24 03:01:27;;;;;;;13.20;12.50;;;8.30;99.90;;;;;;5013800;28;20485;-67
2021/05/24 03:03:54;;;;;;;13.50;12.90;;;8.30;99.90;;;;;;5013320;28;20991;-68
2021/05/24 03:06:22;;;;;;;14.33;13.50;;;8.30;99.90;;;;;;5013690;28;20464;-67
2021/05/24 03:08:48;;;;;;;13.73;13.03;;;8.30;99.90;;;;;;5013683;28;20469;-68
2021/05/24 03:11:14;;;;;;;13.27;12.50;;;8.30;99.90;;;;;;5013736;28;20457;-67
2021/05/24 03:13:41;;;;;;;13.70;12.80;;;8.30;99.90;;;;;;5013310;28;20454;-67
2021/05/24 03:16:07;;;;;;;13.17;12.50;;;8.20;99.90;;;;;;5014046;28;20508;-68
2021/05/24 03:18:33;;;;;;;12.40;11.80;;;8.30;99.90;;;;;;5013338;28;20963;-68
2021/05/24 03:21:01;;;;;;;12.80;12.20;;;8.30;99.90;;;;;;5013346;28;20456;-68
2021/05/24 03:23:28;;;;;;;13.57;12.77;;;8.30;99.90;;;;;;5013624;28;20936;-68
2021/05/24 03:25:54;;;;;;;13.00;12.17;;;8.30;99.90;;;;;;5013282;28;20438;-69
2021/05/24 03:28:20;;;;;;;12.93;12.33;;;8.30;99.90;;;;;;5013258;28;20923;-68
2021/05/24 03:30:47;;;;;;;13.40;12.80;;;8.30;99.90;;;;;;5013143;28;20503;-68
2021/05/24 03:33:13;;;;;;;13.37;12.33;;;8.30;99.90;;;;;;5013129;28;20461;-68
2021/05/24 03:35:39;;;;;;;14.13;12.80;;;8.30;99.90;;;;;;5000844;28;20442;-68
2021/05/24 03:38:06;;;;;;;15.33;14.10;;;8.30;99.90;;;;;;4993529;28;20450;-67
2021/05/24 03:40:33;;;;;;;12.97;12.37;;;8.30;99.90;;;;;;4993173;28;20836;-67
2021/05/24 03:42:59;;;;;;;13.37;12.67;;;8.30;99.90;;;;;;4993423;28;20455;-68
2021/05/24 03:45:27;;;;;;;13.17;12.67;;;8.30;99.90;;;;;;4993567;28;20509;-67
2021/05/24 03:47:54;;;;;;;13.03;12.33;;;8.30;99.90;;;;;;4992895;28;20877;-67
2021/05/24 03:50:21;;;;;;;14.13;13.20;;;8.30;99.90;;;;;;4993260;28;20480;-68
2021/05/24 03:52:48;;;;;;;13.77;12.97;;;8.30;99.90;;;;;;4993342;28;20875;-68
2021/05/24 03:55:17;;;;;;;15.00;14.30;;;8.30;99.90;;;;;;4993428;28;20446;-68
2021/05/24 03:57:45;;;;;;;13.13;12.57;;;8.30;99.90;;;;;;4993299;28;20454;-68
2021/05/24 04:00:12;;;;;;;12.90;12.30;;;8.30;99.90;;;;;;4993207;28;20558;-68
2021/05/24 04:02:39;;;;;;;13.63;13.03;;;8.30;99.90;;;;;;4992954;28;20478;-68
2021/05/24 04:05:14;;;;;;;13.83;12.90;;;8.30;99.90;;;;;;4992738;28;20883;-68
2021/05/24 04:07:43;;;;;;;14.33;13.43;;;8.40;99.90;;;;;;4993185;28;20458;-67
2021/05/24 04:10:11;;;;;;;13.00;12.20;;;8.40;99.90;;;;;;4993112;28;20477;-68
2021/05/24 04:12:37;;;;;;;13.43;12.63;;;8.40;99.90;;;;;;4992794;28;20455;-67
2021/05/24 04:15:05;;;;;;;13.03;12.33;;;8.40;99.90;;;;;;4992889;28;20454;-67
2021/05/24 04:17:37;;;;;;;13.10;12.50;;;8.50;99.90;;;;;;4992631;28;20442;-67
2021/05/24 04:20:05;;;;;;;13.30;12.60;;;8.50;99.90;;;;;;4992850;28;20459;-67
2021/05/24 04:22:31;;;;;;;13.33;12.43;;;8.50;99.90;;;;;;4992726;28;20470;-68
2021/05/24 04:24:57;;;;;;;13.27;12.47;;;8.50;99.90;;;;;;4997387;28;20486;-68
2021/05/24 04:27:23;;;;;;;13.33;12.70;;;8.50;99.90;;;;;;5001084;28;20454;-67
2021/05/24 04:29:49;;;;;;;14.27;13.43;;;8.50;99.90;;;;;;4999828;28;20449;-68
2021/05/24 04:32:16;;;;;;;13.67;12.93;;;8.50;99.90;;;;;;5002001;28;20944;-67
2021/05/24 04:34:42;;;;;;;14.30;13.53;;;8.60;99.90;;;;;;5001650;28;20442;-67
2021/05/24 04:37:09;;;;;;;13.73;12.93;;;8.60;99.90;;;;;;5001505;28;20493;-67
2021/05/24 04:39:35;;;;;;;13.60;12.90;;;8.60;99.90;;;;;;4999978;28;20462;-67
2021/05/24 04:42:04;;;;;;;14.27;13.53;;;8.60;99.90;;;;;;5000788;28;20442;-68
2021/05/24 04:44:31;;;;;;;13.03;12.30;;;8.70;99.90;;;;;;5001845;28;20483;-68
2021/05/24 04:46:57;;;;;;;14.20;13.50;;;8.80;99.90;;;;;;4999904;28;20454;-68
2021/05/24 04:49:24;;;;;;;14.17;13.47;;;8.80;99.90;;;;;;5000452;28;20476;-67
2021/05/24 04:51:50;;;;;;;13.50;12.90;;;8.80;99.90;;;;;;5001583;28;20811;-67
2021/05/24 04:54:16;;;;;;;13.50;12.17;;;8.80;99.90;;;;;;4999614;28;20464;-67
2021/05/24 04:56:42;;;;;;;14.40;13.60;;;8.70;99.90;;;;;;5000836;28;20446;-67
2021/05/24 04:59:09;;;;;;;14.20;13.07;;;8.80;99.90;;;;;;5000432;28;20537;-67
2021/05/24 05:01:35;;;;;;;12.80;12.20;;;8.80;99.90;;;;;;5003136;28;20695;-67
2021/05/24 05:04:01;;;;;;;12.63;11.93;;;8.80;99.90;;;;;;4999830;28;20486;-68
2021/05/24 05:06:28;;;;;;;14.00;13.10;;;8.80;99.90;;;;;;4999847;28;20481;-68
2021/05/24 05:08:54;;;;;;;13.97;13.27;;;8.90;99.90;;;;;;5001125;28;20465;-68
2021/05/24 05:11:20;;;;;;;14.60;13.60;;;8.90;99.90;;;;;;4999805;28;20459;-68
2021/05/24 05:13:47;;;;;;;13.23;12.50;;;8.90;99.90;;;;;;4999841;28;20448;-68
2021/05/24 05:16:13;;;;;;;13.40;12.70;;;9.00;99.90;;;;;;5001379;28;20438;-68
2021/05/24 05:18:39;;;;;;;13.87;13.00;;;9.10;99.90;;;;;;4999659;28;20447;-68
2021/05/24 05:21:05;;;;;;;16.50;15.40;;;9.20;99.90;;;;;;4999651;28;20449;-68
2021/05/24 05:23:32;;;;;;;12.90;12.13;;;9.20;99.90;;;;;;5001158;28;20459;-68
2021/05/24 05:25:58;;;;;;;14.17;13.37;;;9.30;99.90;;;;;;4999354;28;20440;-67
2021/05/24 05:28:25;;;;;;;13.70;12.70;;;9.40;99.90;;;;;;4999889;28;20851;-68
2021/05/24 05:30:52;;;;;;;12.80;12.20;;;9.50;99.90;;;;;;5007214;28;20454;-67
2021/05/24 05:33:19;;;;;;;13.67;12.87;;;9.60;99.90;;;;;;5011081;28;20710;-67
2021/05/24 05:35:47;;;;;;;13.93;13.23;;;9.60;99.90;;;;;;4997936;28;20505;-68
2021/05/24 05:38:14;;;;;;;12.87;12.20;;;9.60;99.90;;;;;;4991596;28;20998;-68
2021/05/24 05:40:42;;;;;;;12.60;11.83;;;9.70;99.90;;;;;;4991333;28;20894;-68
2021/05/24 05:43:08;;;;;;;14.57;13.40;;;9.80;99.90;;;;;;4991623;28;20556;-67
2021/05/24 05:45:34;;;;;;;13.77;13.07;;;9.90;99.90;;;;;;4991350;28;20486;-68
2021/05/24 05:48:01;;;;;;;15.00;13.60;;;10.00;99.90;;;;;;4991482;28;20450;-68
2021/05/24 05:50:28;;;;;;;14.30;13.10;;;9.90;99.90;;;;;;4991345;28;20953;-68
2021/05/24 05:52:54;;;;;;;13.57;12.77;;;9.90;99.90;;;;;;4991407;28;20450;-68
2021/05/24 05:55:20;;;;;;;13.83;13.03;;;10.00;99.90;;;;;;4991396;28;20462;-68
2021/05/24 05:57:47;;;;;;;12.70;12.20;;;10.00;99.90;;;;;;4991236;28;20451;-67
2021/05/24 06:00:14;;;;;;;13.20;12.60;;;10.00;99.90;;;;;;4991374;28;20478;-67
2021/05/24 06:02:41;;;;;;;13.43;12.67;;;10.10;99.90;;;;;;4991027;28;20903;-68
2021/05/24 06:05:08;;;;;;;13.23;12.57;;;10.10;99.90;;;;;;4991234;28;20482;-68
2021/05/24 06:07:34;;;;;;;13.43;12.80;;;10.40;99.90;;;;;;4991441;28;20453;-68
2021/05/24 06:10:00;;;;;;;13.93;12.93;;;10.60;99.90;;;;;;5000470;28;20543;-67
2021/05/24 06:12:26;;;;;;;12.50;11.73;;;10.60;99.90;;;;;;5015008;28;20449;-68
2021/05/24 06:14:53;;;;;;;14.03;13.23;;;10.60;99.90;;;;;;5014937;28;20452;-68
2021/05/24 06:17:19;;;;;;;12.40;11.80;;;10.60;99.90;;;;;;5014451;28;20971;-69
2021/05/24 06:19:45;;;;;;;13.03;12.33;;;10.70;99.90;;;;;;5014957;28;20461;-68
2021/05/24 06:22:12;;;;;;;12.53;11.70;;;10.90;99.90;;;;;;5014856;28;20458;-68
2021/05/24 06:24:38;;;;;;;13.10;12.17;;;11.00;99.90;;;;;;5014587;28;20481;-68
2021/05/24 06:27:04;;;;;;;11.90;11.40;;;11.10;99.90;;;;;;5014405;28;20464;-67
2021/05/24 06:29:32;;;;;;;11.70;11.20;;;11.20;99.90;;;;;;5014715;28;20457;-67
2021/05/24 06:31:59;;;;;;;12.67;11.83;;;11.40;99.90;;;;;;5014640;28;20500;-74
2021/05/24 06:34:26;;;;;;;12.50;11.80;;;11.50;99.90;;;;;;5014781;28;20448;-69
2021/05/24 06:36:52;;;;;;;12.27;11.67;;;11.80;99.90;;;;;;5014228;28;20479;-69
2021/05/24 06:39:20;;;;;;;12.90;12.33;;;11.90;99.90;;;;;;5013977;28;20453;-68
2021/05/24 06:41:47;;;;;;;13.10;12.40;;;12.10;99.90;;;;;;5013616;28;20470;-68
2021/05/24 06:44:13;;;;;;;13.20;12.43;;;12.10;99.90;;;;;;5014138;28;20492;-68
2021/05/24 06:46:39;;;;;;;12.60;11.83;;;12.20;99.90;;;;;;5013977;28;20785;-68
2021/05/24 06:49:06;;;;;;;11.73;11.33;;;12.40;99.90;;;;;;5013543;28;20511;-68
2021/05/24 06:51:33;;;;;;;12.30;11.30;;;12.70;99.90;;;;;;5013485;28;20461;-68
2021/05/24 06:53:59;;;;;;;12.23;11.50;;;12.70;99.90;;;;;;5013620;28;20944;-72
2021/05/24 06:56:26;;;;;;;11.80;11.30;;;12.70;99.90;;;;;;5013256;28;20454;-68
2021/05/24 06:58:52;;;;;;;12.77;12.00;;;12.80;99.90;;;;;;5013005;28;20449;-68
2021/05/24 07:01:18;;;;;;;13.37;12.27;;;12.80;99.90;;;;;;5012532;28;20481;-68
2021/05/24 07:03:45;;;;;;;13.07;12.27;;;13.00;99.90;;;;;;5012641;28;20460;-68
2021/05/24 07:06:12;;;;;;;12.20;11.70;;;13.00;99.90;;;;;;5012860;28;20449;-68
2021/05/24 07:08:38;;;;;;;12.57;12.07;;;12.90;99.90;;;;;;5012628;28;20500;-68
2021/05/24 07:11:04;;;;;;;12.10;11.50;;;13.00;99.90;;;;;;5012685;28;20520;-68
2021/05/24 07:13:30;;;;;;;12.83;12.23;;;13.20;99.90;;;;;;5012889;28;20450;-68
2021/05/24 07:15:57;;;;;;;11.60;11.00;;;13.20;99.90;;;;;;5012624;28;20461;-68
2021/05/24 07:18:23;;;;;;;12.43;11.83;;;13.30;99.90;;;;;;5012686;28;20449;-68
2021/05/24 07:20:49;;;;;;;12.07;11.57;;;13.80;99.90;;;;;;5011716;28;20458;-68
2021/05/24 07:23:16;;;;;;;11.90;11.40;;;14.20;99.90;;;;;;5012357;28;20453;-68
2021/05/24 07:25:43;;;;;;;12.50;12.00;;;14.70;99.90;;;;;;5012476;28;20831;-68
2021/05/24 07:28:09;;;;;;;13.50;12.70;;;14.50;99.90;;;;;;5012390;28;20446;-68
2021/05/24 07:30:36;;;;;;;11.47;10.97;;;14.20;99.90;;;;;;5012451;28;20456;-68
2021/05/24 07:33:02;;;;;;;11.70;11.00;;;14.10;99.90;;;;;;5012416;28;20496;-68
2021/05/24 07:35:28;;;;;;;12.07;11.57;;;14.30;99.90;;;;;;5012258;28;20465;-68
2021/05/24 07:37:55;;;;;;;12.03;11.43;;;14.40;99.90;;;;;;5012353;28;20449;-68
2021/05/24 07:40:22;;;;;;;12.87;12.27;;;14.40;99.90;;;;;;5012168;28;20851;-68
2021/05/24 07:42:48;;;;;;;12.23;11.60;;;14.50;99.90;;;;;;5011979;28;20457;-69
2021/05/24 07:45:15;;;;;;;12.93;12.33;;;14.80;99.90;;;;;;5012249;28;20525;-68
2021/05/24 07:47:41;;;;;;;13.20;12.60;;;15.00;99.90;;;;;;5012155;28;20833;-68
2021/05/24 07:50:08;;;;;;;11.77;11.27;;;15.10;99.90;;;;;;5012077;28;20450;-68
2021/05/24 07:52:34;;;;;;;11.37;10.77;;;15.10;99.90;;;;;;5011928;28;20489;-68
2021/05/24 07:55:02;;;;;;;12.10;11.60;;;15.10;99.90;;;;;;5011641;28;20928;-68
2021/05/24 07:57:29;;;;;;;12.70;12.10;;;15.10;99.90;;;;;;5012112;28;20458;-67
2021/05/24 07:59:55;;;;;;;12.87;12.27;;;15.30;99.90;;;;;;5011856;28;21006;-67
2021/05/24 08:02:22;;;;;;;12.40;11.50;;;15.00;99.90;;;;;;5011544;28;20492;-67
2021/05/24 08:04:49;;;;;;;11.40;10.90;;;15.00;99.90;;;;;;5011685;28;20898;-68
2021/05/24 08:07:15;;;;;;;11.87;11.27;;;15.20;99.90;;;;;;5011743;28;20462;-67
2021/05/24 08:09:41;;;;;;;12.00;11.50;;;15.20;99.90;;;;;;5011636;28;20847;-68
2021/05/24 08:12:08;;;;;;;12.10;11.60;;;15.00;99.90;;;;;;5011675;28;20967;-68
2021/05/24 08:14:35;;;;;;;12.20;11.70;;;15.20;99.90;;;;;;5011677;28;20477;-69
2021/05/24 08:17:01;;;;;;;11.47;10.80;;;15.10;99.90;;;;;;5011693;28;20446;-68
2021/05/24 08:19:27;;;;;;;11.67;11.10;;;15.10;99.90;;;;;;5011729;28;20461;-68
2021/05/24 08:21:53;;;;;;;11.80;11.30;;;15.20;99.90;;;;;;5011260;28;20508;-68
2021/05/24 08:24:19;;;;;;;11.47;10.97;;;15.30;99.90;;;;;;5011189;28;20597;-68
2021/05/24 08:26:47;;;;;;;11.60;11.10;;;15.50;99.90;;;;;;5011379;28;20584;-68
2021/05/24 08:29:13;;;;;;;12.20;11.53;;;15.70;99.90;;;;;;5011433;28;20952;-68
2021/05/24 08:31:40;;;;;;;11.53;11.03;;;15.70;99.90;;;;;;5011240;28;20948;-68
2021/05/24 08:34:08;;;;;;;11.80;11.40;;;15.70;99.90;;;;;;5010880;28;20529;-68
2021/05/24 08:36:34;;;;;;;12.23;11.53;;;15.90;99.90;;;;;;5011061;28;20449;-68
2021/05/24 08:39:01;;;;;;;12.20;11.70;;;16.10;99.80;;;;;;5011206;28;20805;-68
2021/05/24 08:41:27;;;;;;;12.00;11.20;;;16.40;99.70;;;;;;5011081;28;20458;-67
2021/05/24 08:43:53;;;;;;;13.10;12.30;;;16.70;98.50;;;;;;5010910;28;20460;-67
2021/05/24 08:46:20;;;;;;;11.57;11.17;;;16.40;98.90;;;;;;5010875;28;20457;-68
2021/05/24 08:48:47;;;;;;;12.30;11.80;;;16.60;98.60;;;;;;5011052;28;20446;-67
2021/05/24 08:51:13;;;;;;;10.93;10.53;;;16.80;98.30;;;;;;5011098;28;20460;-67
2021/05/24 08:53:40;;;;;;;11.53;11.13;;;17.30;98.00;;;;;;5010706;28;20450;-68
2021/05/24 08:56:07;;;;;;;12.23;11.70;;;17.60;96.70;;;;;;5010752;28;20450;-68
2021/05/24 08:58:34;;;;;;;12.23;11.73;;;18.40;95.60;;;;;;5010765;28;20454;-68
2021/05/24 09:01:00;;;;;;;11.70;11.20;;;19.00;95.50;;;;;;5010502;28;20485;-68
2021/05/24 09:03:32;;;;;;;11.70;11.20;;;19.80;93.70;;;;;;5011070;28;20460;-69
2021/05/24 09:06:01;;;;;;;12.23;11.83;;;20.60;91.90;;;;;;5010869;28;20485;-68
2021/05/24 09:08:35;;;;;;;11.90;11.50;;;20.30;91.30;;;;;;5010844;28;20454;-68
2021/05/24 09:11:03;;;;;;;12.33;11.83;;;20.00;92.00;;;;;;5010445;28;20446;-68
2021/05/24 09:13:31;;;;;;;11.60;11.10;;;20.10;91.60;;;;;;5010549;28;20463;-68
2021/05/24 09:15:58;;;;;;;11.93;11.50;;;19.90;91.50;;;;;;5010659;28;20462;-68
2021/05/24 09:18:24;;;;;;;12.23;11.53;;;19.90;91.70;;;;;;5010399;28;20446;-68
2021/05/24 09:20:51;;;;;;;11.80;11.30;;;19.70;91.80;;;;;;5010381;28;20878;-68
2021/05/24 09:23:21;;;;;;;12.10;11.60;;;19.30;92.80;;;;;;5010261;28;20453;-68
2021/05/24 09:26:00;;;;;;;12.23;11.60;;;19.40;92.70;;;;;;5010168;28;20494;-68
2021/05/24 09:28:35;;;;;;;11.73;11.10;;;19.70;92.40;;;;;;5010471;28;20450;-68
2021/05/24 09:31:05;;;;;;;11.10;10.70;;;19.80;92.30;;;;;;5010244;28;20948;-68
2021/05/24 09:33:32;;;;;;;11.77;11.37;;;19.90;92.10;;;;;;5010708;28;20454;-68
2021/05/24 09:35:58;;;;;;;11.90;11.40;;;19.90;92.10;;;;;;4994931;28;20937;-68
2021/05/24 09:38:32;;;;;;;10.40;9.73;;;19.70;92.30;;;;;;4990563;28;20446;-68
2021/05/24 09:41:01;;;;;;;11.90;11.40;;;19.80;92.40;;;;;;4990590;28;20446;-68
2021/05/24 09:43:33;;;;;;;11.10;10.70;;;19.80;92.20;;;;;;4990807;28;20469;-68
2021/05/24 09:46:23;;;;;;;11.57;11.10;;;19.50;92.90;;;;;;4990144;28;20842;-68
2021/05/24 09:48:52;;;;;;;12.10;11.60;;;19.60;92.80;;;;;;4975650;28;20510;-68
2021/05/24 09:51:20;;;;;;;11.80;11.30;;;19.60;93.30;;;;;;4990369;28;20447;-69
2021/05/24 09:54:02;;;;;;;12.63;11.53;;;19.60;92.80;;;;;;4990277;28;20486;-68
2021/05/24 09:56:29;;;;;;;11.50;10.90;;;20.00;92.90;;;;;;4990467;28;20451;-69
2021/05/24 09:59:00;;;;;;;11.20;10.80;;;20.00;92.60;;;;;;4990324;28;20850;-68
2021/05/24 10:01:35;;;;;;;11.00;10.50;;;20.00;93.00;;;;;;4990417;28;20536;-69
2021/05/24 10:04:03;;;;;;;11.67;11.27;;;20.30;92.50;;;;;;4990297;28;20504;-68
2021/05/24 10:06:29;;;;;;;10.90;10.50;;;20.70;92.20;;;;;;4990686;28;20450;-69
2021/05/24 10:08:56;;;;;;;11.43;11.03;;;20.70;91.90;;;;;;4990293;28;20458;-69
2021/05/24 10:11:24;;;;;;;11.70;11.20;;;20.70;91.90;;;;;;4990393;28;20485;-68
2021/05/24 10:13:50;;;;;;;10.80;10.40;;;20.50;91.50;;;;;;4990288;28;21027;-69
2021/05/24 10:16:17;;;;;;;11.73;10.90;;;20.50;91.70;;;;;;4990256;28;20517;-69
2021/05/24 10:18:43;;;;;;;10.90;10.50;;;20.40;92.50;;;;;;4990460;28;20455;-69
2021/05/24 10:21:09;;;;;;;11.70;11.10;;;20.30;92.00;;;;;;4990253;28;20459;-69
2021/05/24 10:23:36;;;;;;;12.10;11.50;;;20.10;92.30;;;;;;4990222;28;20450;-68
2021/05/24 10:26:05;;;;;;;10.73;10.33;;;20.30;92.30;;;;;;4990146;28;20498;-68
2021/05/24 10:28:33;;;;;;;11.37;10.87;;;20.20;91.70;;;;;;4990085;28;20462;-68
2021/05/24 10:31:01;;;;;;;10.90;10.50;;;20.20;92.10;;;;;;4990137;28;20462;-68
2021/05/24 10:33:39;;;;;;;10.10;9.70;;;20.30;92.30;;;;;;4990277;28;20848;-68
2021/05/24 10:36:22;;;;;;;10.80;10.40;;;20.20;92.00;;;;;;5005965;28;20659;-68
2021/05/24 10:39:05;;;;;;;10.13;9.67;;;20.40;91.60;;;;;;5009625;28;20453;-68
2021/05/24 10:41:48;;;;;;;10.87;10.37;;;20.60;91.50;;;;;;5009734;28;20453;-68
2021/05/24 10:44:16;;;;;;;10.67;10.27;;;20.80;91.40;;;;;;5007479;28;20489;-68
2021/05/24 10:46:43;;;;;;;9.77;9.17;;;20.60;91.00;;;;;;5009597;28;20465;-69
2021/05/24 10:49:24;;;;;;;10.77;10.37;;;20.50;91.20;;;;;;5009616;28;20454;-69
2021/05/24 10:51:58;;;;;;;9.70;9.30;;;20.70;91.30;;;;;;5009455;28;20454;-69
2021/05/24 10:54:27;;;;;;;10.80;10.20;;;20.50;91.00;;;;;;5009385;28;20465;-69
2021/05/24 10:57:16;;;;;;;11.57;11.17;;;20.80;91.10;;;;;;5010774;28;20565;-69
2021/05/24 10:59:49;;;;;;;10.30;9.90;;;20.60;90.60;;;;;;5013070;28;20476;-69
2021/05/24 11:02:17;;;;;;;12.40;11.80;;;20.40;90.90;;;;;;5012847;28;20493;-69
2021/05/24 11:04:52;;;;;;;10.53;10.03;;;20.60;91.00;;;;;;5012832;28;20492;-69
2021/05/24 11:07:26;;;;;;;11.23;10.77;;;21.00;90.80;;;;;;5013001;28;20540;-69
2021/05/24 11:09:53;;;;;;;10.90;10.50;;;21.00;90.40;;;;;;5012683;28;20460;-69
2021/05/24 11:12:29;;;;;;;10.57;10.10;;;20.60;90.30;;;;;;5012693;28;20454;-69
2021/05/24 11:15:12;;;;;;;10.17;9.77;;;20.50;90.70;;;;;;5012742;28;20882;-69
2021/05/24 11:18:13;;;;;;;10.10;9.60;;;20.60;90.70;;;;;;5010633;28;20480;-69
2021/05/24 11:20:45;;;;;;;11.20;10.80;;;20.60;90.80;;;;;;5012624;28;20442;-69
2021/05/24 11:23:21;;;;;;;10.50;10.00;;;20.70;90.70;;;;;;5012527;28;20458;-69
2021/05/24 11:28:35;;;;;;;12.63;11.77;;;20.80;91.20;;;;;;5012300;28;20850;-69
2021/05/24 11:31:10;;;;;;;10.33;9.93;;;21.40;90.40;;;;;;5012443;28;20450;-69
2021/05/24 11:33:38;;;;;;;10.57;10.17;;;21.80;88.20;;;;;;5012309;28;20500;-70
2021/05/24 11:36:05;;;;;;;10.30;9.90;;;22.00;87.00;;;;;;4996178;28;20509;-70
2021/05/24 11:38:31;;;;;;;10.07;9.63;;;21.70;87.80;;;;;;4992402;28;20451;-69
2021/05/24 11:41:12;;;;;;;11.30;10.90;;;21.50;88.10;;;;;;4992742;28;20450;-69
2021/05/24 11:43:41;;;;;;;10.10;9.80;;;21.50;88.70;;;;;;4992419;28;20489;-69
2021/05/24 11:46:09;;;;;;;11.17;10.60;;;21.60;88.00;;;;;;4992189;28;21096;-69
2021/05/24 11:48:40;;;;;;;11.20;10.70;;;22.20;87.60;;;;;;4992401;28;20446;-69
2021/05/24 11:51:08;;;;;;;11.33;10.93;;;23.10;85.50;;;;;;4992274;28;20941;-69
2021/05/24 11:53:35;;;;;;;11.33;10.87;;;22.80;84.80;;;;;;4992437;28;20462;-66
2021/05/24 11:56:09;;;;;;;11.17;10.77;;;23.10;84.70;;;;;;4992191;28;20450;-69
2021/05/24 11:59:03;;;;;;;10.87;10.47;;;22.90;82.20;;;;;;4992204;28;20446;-69
2021/05/24 12:01:30;;;;;;;11.33;10.83;;;23.20;82.60;;;;;;4992326;28;20475;-69
2021/05/24 12:03:56;;;;;;;10.47;10.07;;;23.30;82.50;;;;;;4992371;28;20956;-69
2021/05/24 12:06:24;;;;;;;10.77;10.37;;;23.10;80.00;;;;;;4992065;28;20486;-69
2021/05/24 12:08:50;;;;;;;11.57;11.07;;;22.90;80.80;;;;;;4991563;28;20649;-69
2021/05/24 12:11:17;;;;;;;10.90;10.40;;;23.40;81.40;;;;;;4991935;28;20458;-69
2021/05/24 12:13:58;;;;;;;10.57;10.20;;;23.10;78.80;;;;;;4992160;28;20513;-69
2021/05/24 12:16:24;;;;;;;12.10;11.63;;;23.60;78.30;;;;;;4992011;28;20454;-67
2021/05/24 12:18:52;;;;;;;11.37;10.97;;;23.90;76.80;;;;;;4991778;28;20450;-67
2021/05/24 12:21:31;;;;;;;11.03;10.73;;;23.90;76.90;;;;;;4991572;28;20501;-70
2021/05/24 12:23:59;;;;;;;11.27;10.77;;;23.30;75.70;;;;;;4991671;28;20971;-69
2021/05/24 12:26:25;;;;;;;10.50;10.10;;;22.80;76.00;;;;;;4991654;28;20518;-70
2021/05/24 12:28:51;;;;;;;11.30;10.73;;;22.50;76.10;;;;;;4991603;28;20520;-69
2021/05/24 12:31:18;;;;;;;10.30;10.00;;;22.30;76.80;;;;;;4991513;28;20454;-69
2021/05/24 12:33:46;;;;;;;10.60;10.20;;;22.10;77.70;;;;;;4991768;28;20466;-70
2021/05/24 12:36:16;;;;;;;10.03;9.70;;;22.00;76.60;;;;;;5008530;28;20442;-70
2021/05/24 12:38:45;;;;;;;9.10;8.70;;;21.90;76.70;;;;;;5011198;28;20545;-69